createdAt,value
2022-11-07T00:04:18.374Z,12.23
2022-11-07T00:09:23.223Z,12.10
2022-11-07T00:14:30.744Z,13.23
2022-11-07T00:19:35.698Z,13.23
2022-11-07T00:24:40.831Z,12.90
2022-11-07T00:29:48.305Z,12.53
2022-11-07T00:34:53.085Z,12.20
2022-11-07T00:39:58.010Z,11.67
2022-11-07T00:45:05.437Z,12.67
2022-11-07T00:50:13.856Z,12.57
2022-11-07T00:55:19.187Z,13.33
2022-11-07T01:00:26.690Z,14.57
2022-11-07T01:05:31.515Z,14.40
2022-11-07T01:10:36.587Z,14.70
2022-11-07T01:15:45.895Z,12.93
2022-11-07T01:20:51.833Z,15.67
2022-11-07T01:25:56.797Z,15.70
2022-11-07T01:31:05.989Z,16.23
2022-11-07T01:36:13.641Z,15.30
2022-11-07T01:41:24.846Z,16.17
2022-11-07T01:46:35.701Z,15.93
2022-11-07T01:51:44.551Z,16.17
2022-11-07T01:56:51.563Z,16.23
2022-11-07T02:01:59.186Z,16.90
2022-11-07T02:07:10.515Z,16.23
2022-11-07T02:12:16.064Z,18.53
2022-11-07T02:17:23.700Z,16.73
2022-11-07T02:22:39.300Z,16.07
2022-11-07T02:27:48.471Z,17.53
2022-11-07T02:32:53.753Z,16.27
2022-11-07T02:38:01.194Z,16.03
2022-11-07T02:43:12.709Z,15.07
2022-11-07T02:48:18.006Z,15.27
2022-11-07T02:53:22.910Z,15.67
2022-11-07T02:58:30.427Z,15.97
2022-11-07T03:03:35.690Z,16.77
2022-11-07T03:08:40.790Z,16.40
2022-11-07T03:13:48.640Z,15.87
2022-11-07T03:18:53.482Z,14.97
2022-11-07T03:23:58.280Z,14.63
2022-11-07T03:29:06.259Z,14.87
2022-11-07T03:34:11.278Z,14.67
2022-11-07T03:39:16.054Z,13.73
2022-11-07T03:44:23.534Z,14.53
2022-11-07T03:49:28.368Z,15.33
2022-11-07T03:54:33.314Z,14.17
2022-11-07T03:59:40.875Z,15.10
2022-11-07T04:04:45.748Z,13.87
2022-11-07T04:09:50.487Z,13.73
2022-11-07T04:15:10.359Z,14.07
2022-11-07T04:20:18.076Z,14.27
2022-11-07T04:25:44.544Z,14.23
2022-11-07T04:30:51.959Z,13.17
2022-11-07T04:35:56.738Z,12.47
2022-11-07T04:41:01.898Z,11.80
2022-11-07T04:46:09.307Z,10.10
2022-11-07T04:51:18.312Z,11.47
2022-11-07T04:56:34.438Z,8.90
2022-11-07T05:01:42.377Z,7.13
2022-11-07T05:06:50.723Z,8.27
2022-11-07T05:11:56.276Z,6.83
2022-11-07T05:17:05.064Z,9.97
2022-11-07T05:22:23.004Z,10.40
2022-11-07T05:27:31.207Z,10.40
2022-11-07T05:32:43.835Z,9.80
2022-11-07T05:37:49.352Z,11.03
2022-11-07T05:42:57.028Z,11.17
2022-11-07T05:48:09.947Z,11.07
2022-11-07T05:53:17.297Z,11.30
2022-11-07T05:58:23.547Z,11.07
2022-11-07T06:03:31.208Z,10.70
2022-11-07T06:08:35.931Z,11.00
2022-11-07T06:13:40.816Z,11.00
2022-11-07T06:18:48.138Z,16.13
2022-11-07T06:23:52.946Z,12.17
2022-11-07T06:28:59.017Z,10.23
2022-11-07T06:34:06.379Z,10.60
2022-11-07T06:39:11.281Z,9.37
2022-11-07T06:44:16.298Z,9.83
2022-11-07T06:49:23.764Z,9.77
2022-11-07T06:54:28.658Z,10.83
2022-11-07T06:59:33.395Z,12.27
2022-11-07T07:04:41.068Z,10.83
2022-11-07T07:09:47.021Z,11.03
2022-11-07T07:14:52.443Z,11.50
2022-11-07T07:19:59.849Z,11.20
2022-11-07T07:25:04.846Z,12.03
2022-11-07T07:30:12.079Z,13.07
2022-11-07T07:35:19.750Z,12.37
2022-11-07T07:40:25.445Z,13.43
2022-11-07T07:45:30.268Z,12.13
2022-11-07T07:50:38.596Z,10.80
2022-11-07T07:55:43.581Z,11.40
2022-11-07T08:00:50.465Z,11.30
2022-11-07T08:06:00.315Z,9.27
2022-11-07T08:11:07.097Z,10.30
2022-11-07T08:16:17.725Z,8.63
2022-11-07T08:22:00.115Z,7.43
2022-11-07T08:27:40.132Z,8.43
2022-11-07T08:32:49.069Z,8.03
2022-11-07T08:37:59.424Z,6.50
2022-11-07T08:43:08.137Z,6.30
2022-11-07T08:48:14.079Z,5.87
2022-11-07T08:53:25.326Z,2.77
2022-11-07T08:58:30.671Z,2.53
2022-11-07T09:03:50.401Z,3.70
2022-11-07T09:09:03.492Z,2.40
2022-11-07T09:14:12.201Z,2.20
2022-11-07T09:19:19.322Z,3.47
2022-11-07T09:24:28.930Z,2.20
2022-11-07T09:29:36.974Z,2.70
2022-11-07T09:34:48.312Z,2.83
2022-11-07T09:39:59.997Z,2.20
2022-11-07T09:45:14.642Z,2.27
2022-11-07T09:50:27.796Z,4.10
2022-11-07T09:55:42.090Z,2.47
2022-11-07T10:00:47.314Z,1.40
2022-11-07T10:06:02.192Z,3.13
2022-11-07T10:11:17.066Z,2.73
2022-11-07T10:16:31.551Z,2.93
2022-11-07T10:21:46.259Z,2.70
2022-11-07T10:26:53.861Z,3.60
2022-11-07T10:32:08.513Z,1.83
2022-11-07T10:37:15.194Z,1.70
2022-11-07T10:42:25.617Z,2.63
2022-11-07T10:47:33.066Z,1.70
2022-11-07T10:52:37.990Z,3.20
2022-11-07T10:57:46.617Z,1.83
2022-11-07T11:02:52.550Z,2.40
2022-11-07T11:07:59.105Z,3.20
2022-11-07T11:13:06.833Z,1.80
2022-11-07T11:18:20.857Z,1.50
2022-11-07T11:23:27.555Z,2.10
2022-11-07T11:28:46.022Z,3.00
2022-11-07T11:33:57.034Z,1.13
2022-11-07T11:39:05.983Z,1.33
2022-11-07T11:44:22.455Z,1.70
2022-11-07T11:49:35.478Z,1.43
2022-11-07T11:54:40.642Z,2.23
2022-11-07T12:00:09.182Z,1.17
2022-11-07T12:05:26.850Z,1.47
2022-11-07T12:10:37.770Z,1.63
2022-11-07T12:15:54.918Z,2.63
2022-11-07T12:21:12.377Z,2.37
2022-11-07T12:26:22.561Z,2.10
2022-11-07T12:32:10.180Z,2.23
2022-11-07T12:37:52.258Z,2.20
2022-11-07T12:43:18.142Z,1.33
2022-11-07T12:49:01.511Z,1.30
2022-11-07T12:54:31.033Z,1.20
2022-11-07T12:59:39.944Z,1.70
2022-11-07T13:04:56.339Z,1.50
2022-11-07T13:10:07.704Z,1.13
2022-11-07T13:15:15.935Z,1.50
2022-11-07T13:20:34.292Z,0.93
2022-11-07T13:25:40.832Z,1.30
2022-11-07T13:30:57.067Z,1.23
2022-11-07T13:36:16.919Z,1.40
2022-11-07T13:41:23.466Z,1.47
2022-11-07T13:46:34.833Z,1.83
2022-11-07T13:51:46.146Z,1.10
2022-11-07T13:56:57.867Z,2.13
2022-11-07T14:02:03.396Z,1.70
2022-11-07T14:07:12.343Z,1.40
2022-11-07T14:12:24.732Z,1.43
2022-11-07T14:17:35.943Z,1.50
2022-11-07T14:22:51.862Z,1.20
2022-11-07T14:27:57.756Z,1.83
2022-11-07T14:33:05.940Z,1.73
2022-11-07T14:38:22.529Z,2.97
2022-11-07T14:43:28.677Z,2.17
2022-11-07T14:48:34.774Z,1.40
2022-11-07T14:53:50.822Z,1.20
2022-11-07T14:58:59.331Z,2.57
2022-11-07T15:04:20.565Z,1.30
2022-11-07T15:09:40.931Z,1.40
2022-11-07T15:14:48.663Z,1.43
2022-11-07T15:20:01.983Z,1.57
2022-11-07T15:25:35.613Z,2.20
2022-11-07T15:30:41.246Z,1.80
2022-11-07T15:35:47.173Z,1.70
2022-11-07T15:40:55.202Z,1.37
2022-11-07T15:46:04.519Z,2.17
2022-11-07T15:51:11.593Z,1.57
2022-11-07T15:56:23.384Z,1.60
2022-11-07T16:01:31.488Z,3.17
2022-11-07T16:06:36.426Z,4.10
2022-11-07T16:17:23.303Z,5.93
2022-11-07T16:22:36.490Z,6.23
2022-11-07T16:28:02.297Z,4.83
2022-11-07T16:33:07.972Z,5.37
2022-11-07T16:38:21.296Z,4.47
2022-11-07T16:43:30.195Z,5.03
2022-11-07T16:48:39.584Z,3.93
2022-11-07T16:53:45.030Z,3.70
2022-11-07T16:58:53.079Z,3.80
2022-11-07T17:03:58.331Z,3.60
2022-11-07T17:09:13.147Z,3.10
2022-11-07T17:14:20.896Z,2.37
2022-11-07T17:19:30.194Z,2.37
2022-11-07T17:24:37.232Z,2.20
2022-11-07T17:29:45.612Z,2.40
2022-11-07T17:35:17.701Z,1.90
2022-11-07T17:40:23.056Z,2.00
2022-11-07T17:45:32.109Z,2.07
2022-11-07T17:50:36.971Z,2.63
2022-11-07T17:55:41.910Z,2.37
2022-11-07T18:00:49.220Z,2.43
2022-11-07T18:05:54.129Z,2.60
2022-11-07T18:11:03.433Z,3.67
2022-11-07T18:16:17.595Z,3.10
2022-11-07T18:21:22.859Z,3.40
2022-11-07T18:26:33.651Z,4.03
2022-11-07T18:31:43.508Z,4.43
2022-11-07T18:36:49.091Z,3.73
2022-11-07T18:41:55.188Z,3.50
2022-11-07T18:47:02.622Z,4.60
2022-11-07T18:52:07.675Z,4.50
2022-11-07T18:57:12.711Z,5.00
2022-11-07T19:02:20.301Z,4.70
2022-11-07T19:07:25.138Z,5.63
2022-11-07T19:12:30.918Z,5.77
2022-11-07T19:17:40.072Z,4.40
2022-11-07T19:22:44.884Z,4.03
2022-11-07T19:27:51.722Z,3.77
2022-11-07T19:32:59.580Z,3.67
2022-11-07T19:38:08.658Z,3.13
2022-11-07T19:43:15.226Z,3.00
2022-11-07T19:48:23.339Z,3.90
2022-11-07T19:53:28.372Z,4.43
2022-11-07T19:58:33.089Z,6.23
2022-11-07T20:03:40.807Z,5.20
2022-11-07T20:08:46.436Z,4.87
2022-11-07T20:13:52.665Z,3.90
2022-11-07T20:19:00.155Z,3.80
2022-11-07T20:24:06.493Z,4.20
2022-11-07T20:29:11.962Z,3.97
2022-11-07T20:34:22.314Z,4.10
2022-11-07T20:39:27.221Z,4.57
2022-11-07T20:44:32.013Z,3.37
2022-11-07T20:49:39.543Z,3.50
2022-11-07T20:54:44.950Z,3.67
2022-11-07T20:59:49.747Z,3.17
2022-11-07T21:05:16.793Z,4.17
2022-11-07T21:10:21.942Z,4.00
2022-11-07T21:15:26.905Z,3.73
2022-11-07T21:20:34.458Z,4.20
2022-11-07T21:25:43.850Z,4.60
2022-11-07T21:31:00.481Z,3.80
2022-11-07T21:36:11.792Z,3.27
2022-11-07T21:41:18.423Z,3.53
2022-11-07T21:46:25.567Z,3.53
2022-11-07T21:51:35.180Z,4.00
2022-11-07T21:56:42.631Z,4.20
2022-11-07T22:01:48.940Z,3.10
2022-11-07T22:06:56.673Z,3.23
2022-11-07T22:12:01.465Z,3.20
2022-11-07T22:17:07.741Z,3.10
2022-11-07T22:22:15.063Z,2.60
2022-11-07T22:27:19.964Z,2.30
2022-11-07T22:32:24.898Z,3.33
2022-11-07T22:37:32.743Z,2.80
2022-11-07T22:42:39.406Z,2.40
2022-11-07T22:47:45.549Z,2.70
2022-11-07T22:52:55.752Z,2.30
2022-11-07T22:58:00.850Z,2.60
2022-11-07T23:03:05.986Z,2.37
2022-11-07T23:08:13.662Z,2.30
2022-11-07T23:13:18.628Z,2.47
2022-11-07T23:18:23.377Z,2.40
2022-11-07T23:23:33.084Z,2.17
2022-11-07T23:28:37.943Z,1.93
2022-11-07T23:33:45.563Z,1.83
2022-11-07T23:38:54.050Z,2.17
2022-11-07T23:43:59.088Z,1.93
2022-11-07T23:49:16.243Z,1.93
2022-11-07T23:54:48.212Z,2.67
